createdAt,value
2022-07-27T00:01:31.690Z,93977.31
2022-07-27T00:04:00.511Z,93987.22
2022-07-27T00:06:29.032Z,93984.53
2022-07-27T00:08:57.601Z,93986.59
2022-07-27T00:11:52.838Z,93997.97
2022-07-27T00:14:21.475Z,93995.63
2022-07-27T00:16:50.241Z,93990.41
2022-07-27T00:19:19.045Z,93984.16
2022-07-27T00:21:47.700Z,93992.78
2022-07-27T00:24:16.397Z,94001.19
2022-07-27T00:26:47.742Z,94009.00
2022-07-27T00:29:17.804Z,94001.94
2022-07-27T00:32:12.771Z,94008.59
2022-07-27T00:34:41.622Z,94013.94
2022-07-27T00:37:10.549Z,94020.47
2022-07-27T00:39:39.004Z,94014.50
2022-07-27T00:42:07.968Z,94009.13
2022-07-27T00:44:37.988Z,94009.91
2022-07-27T00:47:06.939Z,94017.53
2022-07-27T00:49:40.915Z,94016.63
2022-07-27T00:52:10.511Z,94010.97
2022-07-27T00:54:39.934Z,94016.69
2022-07-27T00:57:13.566Z,94015.56
2022-07-27T00:59:44.109Z,94021.38
2022-07-27T01:02:12.721Z,94020.28
2022-07-27T01:04:48.496Z,94017.91
2022-07-27T01:07:17.982Z,94026.25
2022-07-27T01:09:59.881Z,94018.44
2022-07-27T01:12:53.094Z,94017.13
2022-07-27T01:15:23.769Z,94020.53
2022-07-27T01:17:55.197Z,94023.81
2022-07-27T01:20:24.026Z,94029.03
2022-07-27T01:22:54.036Z,94029.78
2022-07-27T01:25:23.325Z,94031.81
2022-07-27T01:27:51.974Z,94027.91
2022-07-27T01:30:30.835Z,94032.78
2022-07-27T01:33:03.806Z,94039.56
2022-07-27T01:35:33.201Z,94042.41
2022-07-27T01:38:03.370Z,94047.00
2022-07-27T01:40:32.455Z,94045.31
2022-07-27T01:43:01.864Z,94046.84
2022-07-27T01:45:31.036Z,94051.78
2022-07-27T01:47:59.594Z,94057.88
2022-07-27T01:50:28.519Z,94059.63
2022-07-27T01:52:57.092Z,94056.81
2022-07-27T01:55:27.141Z,94054.91
2022-07-27T01:58:08.311Z,94052.91
2022-07-27T02:00:38.068Z,94046.94
2022-07-27T02:03:09.723Z,94042.53
2022-07-27T02:05:40.069Z,94053.03
2022-07-27T02:08:10.255Z,94046.78
2022-07-27T02:11:00.986Z,94045.06
2022-07-27T02:13:28.599Z,94045.19
2022-07-27T02:15:57.995Z,94051.78
2022-07-27T02:18:36.440Z,94047.72
2022-07-27T02:21:07.241Z,94059.31
2022-07-27T02:24:01.441Z,94057.47
2022-07-27T02:26:31.466Z,94058.53
2022-07-27T02:29:00.009Z,94065.13
2022-07-27T02:31:32.870Z,94055.09
2022-07-27T02:34:02.085Z,94055.09
2022-07-27T02:36:31.097Z,94055.91
2022-07-27T02:39:00.173Z,94059.81
2022-07-27T02:41:30.180Z,94059.97
2022-07-27T02:43:58.809Z,94062.16
2022-07-27T02:46:27.446Z,94068.56
2022-07-27T02:48:56.220Z,94068.72
2022-07-27T02:51:24.896Z,94068.41
2022-07-27T02:53:53.503Z,94070.72
2022-07-27T02:56:26.764Z,94076.22
2022-07-27T02:58:57.324Z,94074.53
2022-07-27T03:01:26.165Z,94083.28
2022-07-27T03:03:54.994Z,94077.94
2022-07-27T03:06:23.596Z,94079.69
2022-07-27T03:08:58.050Z,94078.13
2022-07-27T03:11:28.574Z,94085.16
2022-07-27T03:13:58.541Z,94086.44
2022-07-27T03:16:31.371Z,94087.34
2022-07-27T03:19:00.221Z,94078.75
2022-07-27T03:21:28.923Z,94088.44
2022-07-27T03:23:57.445Z,94079.06
2022-07-27T03:26:26.057Z,94086.56
2022-07-27T03:28:54.579Z,94084.25
2022-07-27T03:31:24.827Z,94084.84
2022-07-27T03:33:53.421Z,94091.75
2022-07-27T03:36:21.963Z,94094.13
2022-07-27T03:38:50.443Z,94093.00
2022-07-27T03:41:19.061Z,94095.19
2022-07-27T03:43:47.638Z,94090.50
2022-07-27T03:46:16.221Z,94087.84
2022-07-27T03:48:46.328Z,94094.09
2022-07-27T03:51:14.887Z,94089.56
2022-07-27T03:53:43.937Z,94096.72
2022-07-27T03:56:12.698Z,94097.66
2022-07-27T03:58:42.646Z,94086.22
2022-07-27T04:01:11.241Z,94091.19
2022-07-27T04:03:44.076Z,94091.31
2022-07-27T04:06:14.379Z,94092.69
2022-07-27T04:08:42.966Z,94087.47
2022-07-27T04:11:11.622Z,94094.47
2022-07-27T04:14:32.909Z,94091.88
2022-07-27T04:17:01.695Z,94100.75
2022-07-27T04:19:30.429Z,94097.06
2022-07-27T04:22:00.450Z,94102.69
2022-07-27T04:24:29.101Z,94098.31
2022-07-27T04:26:57.605Z,94099.44
2022-07-27T04:29:26.302Z,94097.28
2022-07-27T04:31:55.073Z,94107.81
2022-07-27T04:34:23.601Z,94100.38
2022-07-27T04:36:55.249Z,94108.66
2022-07-27T04:39:26.412Z,94101.44
2022-07-27T04:41:54.930Z,94109.84
2022-07-27T04:44:23.483Z,94107.34
2022-07-27T04:47:13.547Z,94117.84
2022-07-27T04:49:42.044Z,94114.97
2022-07-27T04:52:10.612Z,94111.41
2022-07-27T04:54:40.558Z,94123.09
2022-07-27T04:57:09.055Z,94131.34
2022-07-27T04:59:37.747Z,94133.59
2022-07-27T05:02:06.464Z,94137.41
2022-07-27T05:04:35.498Z,94136.75
2022-07-27T05:07:04.140Z,94139.41
2022-07-27T05:09:32.698Z,94144.97
2022-07-27T05:12:02.652Z,94143.97
2022-07-27T05:14:31.192Z,94139.63
2022-07-27T05:16:59.975Z,94141.63
2022-07-27T05:19:40.517Z,94138.25
2022-07-27T05:22:09.552Z,94139.59
2022-07-27T05:25:29.053Z,94142.47
2022-07-27T05:27:58.983Z,94145.38
2022-07-27T05:30:27.595Z,94151.84
2022-07-27T05:32:58.077Z,94142.56
2022-07-27T05:35:26.672Z,94152.53
2022-07-27T05:37:55.201Z,94150.50
2022-07-27T05:40:48.294Z,94150.50
2022-07-27T05:43:18.229Z,94154.88
2022-07-27T05:45:47.964Z,94149.38
2022-07-27T05:48:16.674Z,94155.41
2022-07-27T05:50:45.192Z,94150.03
2022-07-27T05:53:13.689Z,94154.97
2022-07-27T05:55:58.658Z,94155.41
2022-07-27T05:58:30.297Z,94157.06
2022-07-27T06:01:00.123Z,94159.31
2022-07-27T06:03:28.828Z,94150.69
2022-07-27T06:06:26.525Z,94154.72
2022-07-27T06:08:54.265Z,94161.09
2022-07-27T06:11:23.056Z,94147.88
2022-07-27T06:16:22.043Z,94155.75
2022-07-27T06:18:51.151Z,94155.13
2022-07-27T06:21:19.914Z,94153.56
2022-07-27T06:23:48.823Z,94157.22
2022-07-27T06:26:17.563Z,94162.78
2022-07-27T06:28:46.782Z,94163.75
2022-07-27T06:31:16.869Z,94168.75
2022-07-27T06:33:46.195Z,94173.47
2022-07-27T06:36:19.497Z,94167.16
2022-07-27T06:38:48.004Z,94162.44
2022-07-27T06:41:16.535Z,94164.59
2022-07-27T06:43:45.160Z,94168.03
2022-07-27T06:46:14.422Z,94165.72
2022-07-27T06:48:44.801Z,94160.94
2022-07-27T06:51:13.404Z,94159.28
2022-07-27T06:53:41.953Z,94165.75
2022-07-27T06:56:16.475Z,94157.94
2022-07-27T06:58:44.977Z,94150.72
2022-07-27T07:01:16.015Z,94152.66
2022-07-27T07:03:46.365Z,94154.13
2022-07-27T07:06:15.122Z,94140.41
2022-07-27T07:08:43.622Z,94141.06
2022-07-27T07:11:14.024Z,94138.66
2022-07-27T07:13:45.072Z,94140.00
2022-07-27T07:16:14.081Z,94133.22
2022-07-27T07:18:42.811Z,94128.88
2022-07-27T07:21:12.824Z,94133.69
2022-07-27T07:23:41.524Z,94126.84
2022-07-27T07:26:10.117Z,94130.88
2022-07-27T07:29:09.707Z,94134.75
2022-07-27T07:31:39.072Z,94131.41
2022-07-27T07:34:07.812Z,94130.69
2022-07-27T07:36:38.139Z,94127.41
2022-07-27T07:39:06.904Z,94136.13
2022-07-27T07:41:36.543Z,94127.78
2022-07-27T07:44:06.630Z,94133.69
2022-07-27T07:46:36.937Z,94134.53
2022-07-27T07:49:06.480Z,94128.03
2022-07-27T07:51:35.042Z,94124.31
2022-07-27T07:54:05.157Z,94129.81
2022-07-27T07:56:33.768Z,94131.03
2022-07-27T07:59:04.990Z,94128.75
2022-07-27T08:01:33.846Z,94134.09
2022-07-27T08:04:02.416Z,94130.25
2022-07-27T08:06:31.069Z,94127.22
2022-07-27T08:08:59.650Z,94124.59
2022-07-27T08:11:29.544Z,94118.91
2022-07-27T08:13:58.127Z,94130.56
2022-07-27T08:16:26.772Z,94123.25
2022-07-27T08:18:55.322Z,94120.16
2022-07-27T08:21:24.017Z,94112.84
2022-07-27T08:23:54.222Z,94125.66
2022-07-27T08:26:28.589Z,94122.22
2022-07-27T08:28:57.142Z,94120.69
2022-07-27T08:31:52.094Z,94114.91
2022-07-27T08:34:16.603Z,94111.81
2022-07-27T08:36:45.084Z,94107.16
2022-07-27T08:39:41.150Z,94108.31
2022-07-27T08:42:09.547Z,94101.75
2022-07-27T08:44:42.119Z,94105.22
2022-07-27T08:47:12.366Z,94098.28
2022-07-27T08:50:06.522Z,94099.84
2022-07-27T08:52:35.422Z,94095.97
2022-07-27T08:55:10.810Z,94088.63
2022-07-27T08:57:40.691Z,94087.84
2022-07-27T09:00:12.581Z,94093.28
2022-07-27T09:02:42.446Z,94083.22
2022-07-27T09:05:11.401Z,94074.69
2022-07-27T09:07:39.957Z,94078.97
2022-07-27T09:10:11.662Z,94083.16
2022-07-27T09:12:41.828Z,94082.78
2022-07-27T09:15:13.749Z,94079.31
2022-07-27T09:17:48.345Z,94076.56
2022-07-27T09:20:21.031Z,94084.69
2022-07-27T09:22:52.374Z,94082.38
2022-07-27T09:25:45.343Z,94087.75
2022-07-27T09:28:14.186Z,94070.34
2022-07-27T09:30:44.461Z,94076.13
2022-07-27T09:33:16.882Z,94064.47
2022-07-27T09:35:46.347Z,94077.19
2022-07-27T09:39:05.538Z,94072.22
2022-07-27T09:41:46.228Z,94070.56
2022-07-27T09:44:34.933Z,94072.03
2022-07-27T09:47:23.144Z,94074.44
2022-07-27T09:49:51.825Z,94065.25
2022-07-27T09:52:26.346Z,94059.06
2022-07-27T09:54:55.318Z,94064.88
2022-07-27T09:57:23.956Z,94062.16
2022-07-27T10:00:11.450Z,94054.38
2022-07-27T10:02:41.491Z,94055.19
2022-07-27T10:05:11.284Z,94053.25
2022-07-27T10:07:41.663Z,94060.91
2022-07-27T10:10:12.568Z,94047.25
2022-07-27T10:12:41.524Z,94044.41
2022-07-27T10:15:24.499Z,94046.38
2022-07-27T10:18:08.600Z,94039.22
2022-07-27T10:20:42.415Z,94040.31
2022-07-27T10:23:27.767Z,94046.00
2022-07-27T10:26:21.039Z,94042.00
2022-07-27T10:28:58.428Z,94040.03
2022-07-27T10:31:31.873Z,94036.13
2022-07-27T10:34:02.389Z,94042.66
2022-07-27T10:36:52.774Z,94042.75
2022-07-27T10:39:35.079Z,94034.59
2022-07-27T10:42:34.267Z,94034.28
2022-07-27T10:45:08.625Z,94034.16
2022-07-27T10:47:45.724Z,94027.44
2022-07-27T10:50:33.719Z,94021.56
2022-07-27T10:53:07.748Z,94020.69
2022-07-27T10:55:51.050Z,94022.03
2022-07-27T10:58:45.684Z,94015.50
2022-07-27T11:01:16.078Z,94013.81
2022-07-27T11:03:53.810Z,94016.41
2022-07-27T11:06:42.184Z,94001.25
2022-07-27T11:10:02.314Z,94002.06
2022-07-27T11:12:12.981Z,94004.09
2022-07-27T11:14:50.224Z,93992.31
2022-07-27T11:17:52.427Z,93992.06
2022-07-27T11:20:13.298Z,93988.75
2022-07-27T11:23:20.848Z,93984.25
2022-07-27T11:25:31.979Z,93981.53
2022-07-27T11:28:08.295Z,93976.09
2022-07-27T11:30:37.325Z,93977.47
2022-07-27T11:33:07.277Z,93975.31
2022-07-27T11:35:37.415Z,93976.50
2022-07-27T11:38:08.477Z,93972.38
2022-07-27T11:40:57.299Z,93968.00
2022-07-27T11:43:38.329Z,93956.78
2022-07-27T11:46:16.474Z,93963.69
2022-07-27T11:49:08.000Z,93959.94
2022-07-27T11:52:09.338Z,93960.25
2022-07-27T11:54:40.627Z,93960.47
2022-07-27T11:57:13.319Z,93956.97
2022-07-27T11:59:47.762Z,93950.16
2022-07-27T12:02:19.863Z,93941.50
2022-07-27T12:04:50.412Z,93947.84
2022-07-27T12:07:23.829Z,93936.75
2022-07-27T12:09:54.813Z,93937.06
2022-07-27T12:12:26.005Z,93943.91
2022-07-27T12:14:56.867Z,93931.31
2022-07-27T12:17:30.159Z,93928.78
2022-07-27T12:20:05.694Z,93920.34
2022-07-27T12:22:39.837Z,93912.19
2022-07-27T12:25:16.955Z,93911.34
2022-07-27T12:27:57.448Z,93909.94
2022-07-27T12:30:35.394Z,93916.50
2022-07-27T12:33:06.184Z,93907.75
2022-07-27T12:35:46.091Z,93917.72
2022-07-27T12:38:17.493Z,93911.22
2022-07-27T12:40:49.102Z,93907.47
2022-07-27T12:43:20.385Z,93914.69
2022-07-27T12:45:51.084Z,93901.00
2022-07-27T12:48:22.770Z,93901.06
2022-07-27T12:51:00.982Z,93893.03
2022-07-27T12:53:32.640Z,93895.81
2022-07-27T12:56:05.782Z,93890.84
2022-07-27T12:58:34.679Z,93892.31
2022-07-27T13:01:03.347Z,93883.44
2022-07-27T13:03:31.879Z,93876.72
2022-07-27T13:06:00.420Z,93879.22
2022-07-27T13:08:30.313Z,93872.41
2022-07-27T13:11:00.908Z,93876.69
2022-07-27T13:13:29.497Z,93877.88
2022-07-27T13:15:57.964Z,93877.16
2022-07-27T13:18:26.555Z,93869.13
2022-07-27T13:20:55.316Z,93871.63
2022-07-27T13:23:23.949Z,93869.22
2022-07-27T13:25:53.984Z,93863.81
2022-07-27T13:28:22.439Z,93865.34
2022-07-27T13:30:51.002Z,93858.47
2022-07-27T13:33:19.535Z,93847.69
2022-07-27T13:35:53.257Z,93853.75
2022-07-27T13:38:29.585Z,93854.47
2022-07-27T13:40:59.456Z,93848.31
2022-07-27T13:43:28.025Z,93847.06
2022-07-27T13:45:56.764Z,93842.03
2022-07-27T13:48:32.363Z,93844.03
2022-07-27T13:51:01.144Z,93842.63
2022-07-27T13:53:29.603Z,93836.84
2022-07-27T13:56:01.444Z,93832.38
2022-07-27T13:58:31.262Z,93824.41
2022-07-27T14:01:05.422Z,93828.75
2022-07-27T14:03:36.038Z,93827.22
2022-07-27T14:06:06.602Z,93835.38
2022-07-27T14:08:37.063Z,93828.50
2022-07-27T14:11:07.049Z,93828.28
2022-07-27T14:13:36.141Z,93841.34
2022-07-27T14:16:06.955Z,93839.19
2022-07-27T14:18:36.034Z,93847.28
2022-07-27T14:21:07.866Z,93849.13
2022-07-27T14:23:38.122Z,93855.91
2022-07-27T14:26:09.766Z,93876.84
2022-07-27T14:28:39.327Z,93860.06
2022-07-27T14:31:10.631Z,93861.59
2022-07-27T14:33:39.950Z,93874.25
2022-07-27T14:36:10.710Z,93864.41
2022-07-27T14:38:39.468Z,93861.09
2022-07-27T14:41:09.524Z,93870.19
2022-07-27T14:43:56.557Z,93868.41
2022-07-27T14:46:25.159Z,93871.09
2022-07-27T14:49:08.962Z,93874.22
2022-07-27T14:51:38.331Z,93876.56
2022-07-27T14:54:07.668Z,93883.16
2022-07-27T14:56:37.658Z,93884.28
2022-07-27T14:59:06.652Z,93886.22
2022-07-27T15:01:35.252Z,93881.19
2022-07-27T15:04:04.154Z,93884.28
2022-07-27T15:06:38.450Z,93884.28
2022-07-27T15:09:07.872Z,93879.66
2022-07-27T15:11:37.860Z,93874.22
2022-07-27T15:14:06.597Z,93871.53
2022-07-27T15:16:35.190Z,93874.25
2022-07-27T15:19:03.816Z,93878.09
2022-07-27T15:21:32.476Z,93864.94
2022-07-27T15:24:01.619Z,93873.84
2022-07-27T15:26:30.104Z,93878.50
2022-07-27T15:29:00.067Z,93877.69
2022-07-27T15:31:29.561Z,93879.56
2022-07-27T15:33:58.101Z,93881.50
2022-07-27T15:36:31.931Z,93882.22
2022-07-27T15:39:02.659Z,93885.66
2022-07-27T15:41:33.938Z,93888.69
2022-07-27T15:44:04.217Z,93890.22
2022-07-27T15:46:33.868Z,93892.13
2022-07-27T15:49:02.958Z,93899.47
2022-07-27T15:51:35.284Z,93904.06
2022-07-27T15:54:03.804Z,93908.63
2022-07-27T15:56:32.833Z,93912.03
2022-07-27T15:59:02.053Z,93915.03
2022-07-27T16:01:35.152Z,93913.06
2022-07-27T16:04:05.289Z,93916.75
2022-07-27T16:06:39.218Z,93914.47
2022-07-27T16:09:10.243Z,93912.88
2022-07-27T16:11:39.329Z,93898.63
2022-07-27T16:14:08.077Z,93903.69
2022-07-27T16:16:38.090Z,93908.78
2022-07-27T16:19:13.463Z,93905.31
2022-07-27T16:21:53.890Z,93907.63
2022-07-27T16:24:26.338Z,93909.97
2022-07-27T16:26:55.264Z,93910.34
2022-07-27T16:29:24.134Z,93909.28
2022-07-27T16:31:58.115Z,93918.50
2022-07-27T16:34:27.754Z,93921.59
2022-07-27T16:36:56.844Z,93922.41
2022-07-27T16:39:26.130Z,93925.19
2022-07-27T16:41:55.087Z,93932.19
2022-07-27T16:44:23.568Z,93917.13
2022-07-27T16:46:54.810Z,93931.00
2022-07-27T16:49:33.693Z,93923.66
2022-07-27T16:52:06.112Z,93929.41
2022-07-27T16:54:39.286Z,93929.78
2022-07-27T16:57:09.377Z,93920.13
2022-07-27T16:59:39.299Z,93927.88
2022-07-27T17:02:09.269Z,93929.41
2022-07-27T17:04:38.065Z,93928.94
2022-07-27T17:07:12.675Z,93931.91
2022-07-27T17:09:41.618Z,93932.19
2022-07-27T17:12:10.363Z,93945.94
2022-07-27T17:14:39.023Z,93954.19
2022-07-27T17:17:10.211Z,93961.75
2022-07-27T17:19:38.897Z,93961.16
2022-07-27T17:22:07.701Z,93960.38
2022-07-27T17:24:38.161Z,93967.16
2022-07-27T17:27:07.109Z,93966.28
2022-07-27T17:29:35.758Z,93968.50
2022-07-27T17:32:04.260Z,93969.19
2022-07-27T17:34:34.291Z,93976.41
2022-07-27T17:37:03.430Z,93965.13
2022-07-27T17:39:32.051Z,93968.88
2022-07-27T17:42:00.579Z,93980.72
2022-07-27T17:44:29.060Z,93980.22
2022-07-27T17:46:57.691Z,93981.22
2022-07-27T17:49:26.295Z,93980.34
2022-07-27T17:51:56.885Z,93973.72
2022-07-27T17:54:26.194Z,93963.16
2022-07-27T17:56:54.763Z,93968.84
2022-07-27T17:59:39.089Z,93968.72
2022-07-27T18:02:08.419Z,93973.22
2022-07-27T18:04:39.439Z,93965.06
2022-07-27T18:07:09.696Z,93957.34
2022-07-27T18:09:38.248Z,93953.44
2022-07-27T18:12:07.880Z,93956.06
2022-07-27T18:14:38.545Z,93945.50
2022-07-27T18:17:07.195Z,93942.31
2022-07-27T18:19:36.076Z,93957.28
2022-07-27T18:22:04.613Z,93962.81
2022-07-27T18:24:35.840Z,93972.03
2022-07-27T18:27:04.377Z,93963.41
2022-07-27T18:29:33.032Z,93974.47
2022-07-27T18:32:01.591Z,93984.22
2022-07-27T18:34:30.588Z,93991.00
2022-07-27T18:37:24.665Z,94008.97
2022-07-27T18:39:54.601Z,94010.88
2022-07-27T18:42:48.194Z,94018.00
2022-07-27T18:45:16.856Z,94024.00
2022-07-27T18:47:49.316Z,94022.34
2022-07-27T18:50:18.527Z,94032.19
2022-07-27T18:52:47.154Z,94038.53
2022-07-27T18:55:21.244Z,94032.09
2022-07-27T18:58:13.424Z,94035.53
2022-07-27T19:00:42.702Z,94045.59
2022-07-27T19:03:11.430Z,94049.31
2022-07-27T19:05:41.890Z,94041.63
2022-07-27T19:08:13.374Z,94045.00
2022-07-27T19:10:45.129Z,94048.16
2022-07-27T19:13:14.402Z,94056.09
2022-07-27T19:15:43.367Z,94067.31
2022-07-27T19:18:11.974Z,94077.63
2022-07-27T19:20:41.469Z,94071.28
2022-07-27T19:23:10.035Z,94073.56
2022-07-27T19:25:38.607Z,94063.09
2022-07-27T19:28:08.729Z,94059.72
2022-07-27T19:30:38.797Z,94063.25
2022-07-27T19:33:07.470Z,94057.09
2022-07-27T19:36:00.955Z,94056.91
2022-07-27T19:38:29.446Z,94062.72
2022-07-27T19:41:07.357Z,94054.16
2022-07-27T19:43:37.513Z,94069.28
2022-07-27T19:46:06.099Z,94085.00
2022-07-27T19:48:34.910Z,94076.22
2022-07-27T19:51:07.089Z,94074.06
2022-07-27T19:53:36.057Z,94071.78
2022-07-27T19:56:04.966Z,94072.47
2022-07-27T19:58:33.589Z,94080.06
2022-07-27T20:01:03.887Z,94076.06
2022-07-27T20:03:53.733Z,94068.47
2022-07-27T20:06:25.748Z,94073.28
2022-07-27T20:08:59.588Z,94085.31
2022-07-27T20:11:30.665Z,94071.59
2022-07-27T20:13:59.551Z,94091.00
2022-07-27T20:16:30.280Z,94087.44
2022-07-27T20:19:00.399Z,94097.91
2022-07-27T20:21:28.908Z,94091.69
2022-07-27T20:23:58.648Z,94096.69
2022-07-27T20:26:27.135Z,94087.44
2022-07-27T20:28:55.720Z,94082.88
2022-07-27T20:31:24.423Z,94086.84
2022-07-27T20:33:54.439Z,94092.88
2022-07-27T20:36:48.473Z,94100.00
2022-07-27T20:39:17.842Z,94099.25
2022-07-27T20:41:46.728Z,94096.34
2022-07-27T20:44:15.239Z,94105.50
2022-07-27T20:46:43.778Z,94115.75
2022-07-27T20:49:14.056Z,94118.75
2022-07-27T20:51:43.061Z,94120.59
2022-07-27T20:54:38.431Z,94121.47
2022-07-27T20:57:07.624Z,94115.41
2022-07-27T20:59:36.403Z,94134.09
2022-07-27T21:02:05.217Z,94135.59
2022-07-27T21:04:35.524Z,94136.50
2022-07-27T21:07:06.133Z,94142.22
2022-07-27T21:09:34.956Z,94134.53
2022-07-27T21:12:08.713Z,94134.22
2022-07-27T21:14:37.325Z,94132.72
2022-07-27T21:17:06.007Z,94142.50
2022-07-27T21:19:36.065Z,94132.88
2022-07-27T21:22:04.635Z,94164.09
2022-07-27T21:24:33.275Z,94153.41
2022-07-27T21:27:05.865Z,94163.13
2022-07-27T21:29:34.927Z,94147.16
2022-07-27T21:32:03.749Z,94154.72
2022-07-27T21:34:32.235Z,94161.50
2022-07-27T21:37:02.508Z,94161.63
2022-07-27T21:39:31.633Z,94165.09
2022-07-27T21:42:02.313Z,94174.25
2022-07-27T21:44:32.466Z,94183.44
2022-07-27T21:47:00.988Z,94182.94
2022-07-27T21:49:34.221Z,94186.91
2022-07-27T21:52:04.984Z,94183.34
2022-07-27T21:54:33.464Z,94189.72
2022-07-27T21:57:02.090Z,94179.72
2022-07-27T21:59:30.582Z,94187.75
2022-07-27T22:02:00.928Z,94179.16
2022-07-27T22:04:29.720Z,94183.00
2022-07-27T22:06:58.465Z,94186.03
2022-07-27T22:09:28.428Z,94197.28
2022-07-27T22:11:56.954Z,94188.13
2022-07-27T22:14:25.519Z,94194.28
2022-07-27T22:16:54.298Z,94207.22
2022-07-27T22:19:23.413Z,94207.88
2022-07-27T22:21:52.325Z,94194.97
2022-07-27T22:24:20.872Z,94200.53
2022-07-27T22:26:50.974Z,94206.56
2022-07-27T22:29:19.459Z,94214.81
2022-07-27T22:31:48.189Z,94220.94
2022-07-27T22:34:17.194Z,94220.19
2022-07-27T22:36:46.083Z,94223.50
2022-07-27T22:39:14.586Z,94229.09
2022-07-27T22:41:43.097Z,94239.16
2022-07-27T22:44:13.573Z,94239.47
2022-07-27T22:46:44.397Z,94241.34
2022-07-27T22:49:13.140Z,94241.81
2022-07-27T22:51:49.609Z,94237.56
2022-07-27T22:54:21.991Z,94252.09
2022-07-27T22:56:50.719Z,94249.84
2022-07-27T22:59:20.721Z,94255.19
2022-07-27T23:01:49.403Z,94260.13
2022-07-27T23:04:18.777Z,94262.25
2022-07-27T23:06:48.435Z,94277.53
2022-07-27T23:09:17.366Z,94292.94
2022-07-27T23:11:46.888Z,94295.50
2022-07-27T23:14:15.814Z,94301.41
2022-07-27T23:16:46.242Z,94325.97
2022-07-27T23:19:15.066Z,94322.72
2022-07-27T23:21:44.893Z,94335.44
2022-07-27T23:24:14.113Z,94331.53
2022-07-27T23:26:43.374Z,94337.44
2022-07-27T23:29:11.964Z,94341.38
2022-07-27T23:31:41.253Z,94338.69
2022-07-27T23:34:11.651Z,94344.50
2022-07-27T23:36:43.813Z,94345.28
2022-07-27T23:39:12.303Z,94338.81
2022-07-27T23:41:40.876Z,94329.19
2022-07-27T23:44:09.422Z,94327.72
2022-07-27T23:46:38.027Z,94323.03
2022-07-27T23:49:06.747Z,94325.00
2022-07-27T23:51:37.203Z,94324.13
2022-07-27T23:54:06.098Z,94323.88
2022-07-27T23:56:34.642Z,94322.19
2022-07-27T23:59:03.254Z,94331.59
